Bella Coola Airport

Current Flights

Arrivals
Number Arrival From Airline
 8P345 11:30  Vancouver  Pacific Coastal Airlines
 8P341 11:30  Vancouver  Pacific Coastal Airlines
Info
Name: Bella Coola Airport
Identifier:  QBC/CYBD
Local Time:  21. May 07:50
City
Bella Coola
  Canada

Flights per Day
2 flights
Distance: 352km (219mi)
Punctuality
80% (0 flights per day delayed)
Delay Average: 17 minutes
Current Weather
 11 C (Humidity: 100%)
  2kt (3km/h / 2mph) from 80°
  Few clouds at 2,600 feet (792 meter)
  Overcast at 5,200 feet (1,584 meter)
  24km (14 mi.)
 METAR CYBD 211400Z 08002KT 15SM FEW026 OVC052 11/11 A2982 RMK SC1SC7 FG OVR RIVER SLP101

Current Delays

Departures
N/A
Arrivals
N/A

Destinations

Top Destinations
Airport Flights
per week
Seats
per week
  Vancouver (YVR) 14 - 2 0
  Anahim Lake (YAA) <1 - 0 0
  Williams Lake (YWL) <1 - 0 0

Airlines & Planes

Top Airlines
Airline Flights
per Day
Seats
per Day
  Pacific Coastal Airlines 1 -
  Perimeter Aviation <1 -
  North Cariboo Air <1 -
  Wasaya Airways <1 -
Top Plane Types
Manufacturer Model Flights Seats
Beech 1900D 2.3/day - 0
Beech B300 Super King Air 350 0.2/day - 0